Cool Ridge, WV (25825)

1:59 PM EDT on May 29, 2017 (GMT -0400)
Cool Ridge | | Change Station

Elev 2965 ft 37.66 °N, 81.09 °W | Updated 2 seconds ago

Mostly Cloudy
Mostly Cloudy
69.2 °F
Feels Like 69.2 °F
N
0.0
Wind Variable Wind from WSW

Today
High -- | Low -- °F
--% Chance of Precip.
Yesterday
High -- | Low -- °F
Precip. -- in
Pressure 29.99 in
Visibility 10.0 miles
Clouds Few 5500 ft
Dew Point 55 °F
Humidity 61%
Rainfall 0.00 in
Snow Depth Not available.
6:05 AM 8:38 PM
Waxing Crescent, 21% visible
METAR KBKW 291751Z AUTO 28010KT 10SM FEW055 22/08 A3007 RMK AO2 SLP155 T02170078 10228 20172 51014 TSNO
Pressure 29.99 in
Visibility 10.0 miles
Clouds Few 5500 ft
Dew Point 55 °F
Humidity 61%
Rainfall 0.00 in
Snow Depth Not available.
6:05 AM 8:38 PM
Waxing Crescent, 21% visible
METAR KBKW 291751Z AUTO 28010KT 10SM FEW055 22/08 A3007 RMK AO2 SLP155 T02170078 10228 20172 51014 TSNO

Get Severe Weather Alerts

Thanks for signing up!

Be on the lookout for a verification email in your inbox.

You'll start receiving the daily forecast at 6 AM.

×

10-Day Weather Forecast

Almanac

Astronomy

May. 29, 2017 Rise Set
Actual Time
Civil Twilight
Nautical Twilight
Astronomical Twilight
Moon
Length of Visible Light
Length of Day
Tomorrow will be .
, % of the Moon is Illuminated

Today's Extremes

State Highs State Lows

Community

WunderPhotos

Category 6

Welcome to Category 6. This is the collective home for Weather Underground's featured writeups by Dr. Jeff Masters (right), Bob Henson (left), Chris Burt, and other regular contributors.

Nearby

Air Quality

  Air Quality AQ Index Pollutant
Not available.

Snow Depth

Station Depth Elevation

Earthquake Activity

City Distance Mag. Time & Date
Minimum magnitude displayed is 2.5.

Coastal Water Temperatures

Place Temperature

Stations

Nearby Weather Stations

Station Location Temp. Windchill Dew Point Humidity Wind Precip. Elev Updated Type
                   

Watches & Warnings

There are currently no watches in effect.